sensor_id;sensor_type;location;lat;lon;timestamp;P1;durP1;ratioP1;P2;durP2;ratioP2
39750;SDS011;37579;51.074;17.004;2023-05-20T00:00:34;5.20;;;3.60;;
39750;SDS011;37579;51.074;17.004;2023-05-20T00:03:00;6.07;;;3.80;;
39750;SDS011;37579;51.074;17.004;2023-05-20T00:05:27;5.75;;;3.63;;
39750;SDS011;37579;51.074;17.004;2023-05-20T00:07:52;5.97;;;3.60;;
39750;SDS011;37579;51.074;17.004;2023-05-20T00:10:18;5.55;;;3.40;;
39750;SDS011;37579;51.074;17.004;2023-05-20T00:12:44;7.18;;;3.92;;
39750;SDS011;37579;51.074;17.004;2023-05-20T00:15:10;6.80;;;3.80;;
39750;SDS011;37579;51.074;17.004;2023-05-20T00:17:38;6.88;;;3.60;;
39750;SDS011;37579;51.074;17.004;2023-05-20T00:20:04;5.85;;;3.45;;
39750;SDS011;37579;51.074;17.004;2023-05-20T00:22:31;6.65;;;4.30;;
39750;SDS011;37579;51.074;17.004;2023-05-20T00:24:57;6.25;;;3.80;;
39750;SDS011;37579;51.074;17.004;2023-05-20T00:27:22;4.75;;;3.45;;
39750;SDS011;37579;51.074;17.004;2023-05-20T00:29:48;4.80;;;3.47;;
39750;SDS011;37579;51.074;17.004;2023-05-20T00:32:15;6.22;;;3.90;;
39750;SDS011;37579;51.074;17.004;2023-05-20T00:34:41;4.75;;;3.45;;
39750;SDS011;37579;51.074;17.004;2023-05-20T00:37:08;5.97;;;3.97;;
39750;SDS011;37579;51.074;17.004;2023-05-20T00:39:35;6.63;;;3.65;;
39750;SDS011;37579;51.074;17.004;2023-05-20T00:42:00;5.40;;;3.30;;
39750;SDS011;37579;51.074;17.004;2023-05-20T00:44:27;5.15;;;3.30;;
39750;SDS011;37579;51.074;17.004;2023-05-20T00:46:54;4.90;;;3.20;;
39750;SDS011;37579;51.074;17.004;2023-05-20T00:49:20;4.68;;;3.50;;
39750;SDS011;37579;51.074;17.004;2023-05-20T00:51:47;5.13;;;3.53;;
39750;SDS011;37579;51.074;17.004;2023-05-20T00:54:13;4.90;;;3.40;;
39750;SDS011;37579;51.074;17.004;2023-05-20T00:56:40;5.63;;;3.85;;
39750;SDS011;37579;51.074;17.004;2023-05-20T00:59:06;4.65;;;3.25;;
39750;SDS011;37579;51.074;17.004;2023-05-20T01:01:33;6.35;;;3.80;;
39750;SDS011;37579;51.074;17.004;2023-05-20T01:03:59;4.60;;;3.40;;
39750;SDS011;37579;51.074;17.004;2023-05-20T01:06:25;4.82;;;3.75;;
39750;SDS011;37579;51.074;17.004;2023-05-20T01:08:52;5.50;;;3.80;;
39750;SDS011;37579;51.074;17.004;2023-05-20T01:11:25;4.35;;;3.17;;
39750;SDS011;37579;51.074;17.004;2023-05-20T01:13:56;5.75;;;3.88;;
39750;SDS011;37579;51.074;17.004;2023-05-20T01:16:30;6.43;;;3.50;;
39750;SDS011;37579;51.074;17.004;2023-05-20T01:18:58;4.88;;;3.55;;
39750;SDS011;37579;51.074;17.004;2023-05-20T01:21:27;4.15;;;3.38;;
39750;SDS011;37579;51.074;17.004;2023-05-20T01:23:55;4.53;;;3.42;;
39750;SDS011;37579;51.074;17.004;2023-05-20T01:26:21;6.22;;;3.70;;
39750;SDS011;37579;51.074;17.004;2023-05-20T01:28:51;4.78;;;3.72;;
39750;SDS011;37579;51.074;17.004;2023-05-20T01:31:22;4.10;;;2.90;;
39750;SDS011;37579;51.074;17.004;2023-05-20T01:33:50;5.28;;;3.47;;
39750;SDS011;37579;51.074;17.004;2023-05-20T01:36:20;4.35;;;3.40;;
39750;SDS011;37579;51.074;17.004;2023-05-20T01:38:47;4.10;;;3.28;;
39750;SDS011;37579;51.074;17.004;2023-05-20T01:41:15;5.38;;;3.75;;
39750;SDS011;37579;51.074;17.004;2023-05-20T01:43:42;5.28;;;3.42;;
39750;SDS011;37579;51.074;17.004;2023-05-20T01:46:08;5.80;;;3.83;;
39750;SDS011;37579;51.074;17.004;2023-05-20T01:48:34;5.15;;;3.50;;
39750;SDS011;37579;51.074;17.004;2023-05-20T01:51:00;5.15;;;3.35;;
39750;SDS011;37579;51.074;17.004;2023-05-20T01:53:26;4.00;;;2.97;;
39750;SDS011;37579;51.074;17.004;2023-05-20T01:55:52;4.50;;;3.70;;
39750;SDS011;37579;51.074;17.004;2023-05-20T01:58:17;3.90;;;3.15;;
39750;SDS011;37579;51.074;17.004;2023-05-20T02:00:43;4.10;;;3.33;;
39750;SDS011;37579;51.074;17.004;2023-05-20T02:03:09;4.13;;;3.15;;
39750;SDS011;37579;51.074;17.004;2023-05-20T02:05:35;4.15;;;3.40;;
39750;SDS011;37579;51.074;17.004;2023-05-20T02:08:03;4.82;;;3.50;;
39750;SDS011;37579;51.074;17.004;2023-05-20T02:10:29;5.65;;;3.75;;
39750;SDS011;37579;51.074;17.004;2023-05-20T02:12:55;5.30;;;3.90;;
39750;SDS011;37579;51.074;17.004;2023-05-20T02:15:22;4.05;;;3.53;;
39750;SDS011;37579;51.074;17.004;2023-05-20T02:17:47;3.88;;;3.13;;
39750;SDS011;37579;51.074;17.004;2023-05-20T02:20:13;4.95;;;4.05;;
39750;SDS011;37579;51.074;17.004;2023-05-20T02:22:40;4.85;;;3.47;;
39750;SDS011;37579;51.074;17.004;2023-05-20T02:25:06;5.47;;;4.03;;
39750;SDS011;37579;51.074;17.004;2023-05-20T02:27:32;3.95;;;3.33;;
39750;SDS011;37579;51.074;17.004;2023-05-20T02:29:58;3.83;;;3.42;;
39750;SDS011;37579;51.074;17.004;2023-05-20T02:32:25;3.90;;;2.97;;
39750;SDS011;37579;51.074;17.004;2023-05-20T02:34:55;3.92;;;3.28;;
39750;SDS011;37579;51.074;17.004;2023-05-20T02:37:21;4.05;;;3.63;;
39750;SDS011;37579;51.074;17.004;2023-05-20T02:39:47;4.32;;;3.17;;
39750;SDS011;37579;51.074;17.004;2023-05-20T02:42:13;4.40;;;3.53;;
39750;SDS011;37579;51.074;17.004;2023-05-20T02:44:39;4.65;;;3.47;;
39750;SDS011;37579;51.074;17.004;2023-05-20T02:47:05;4.60;;;3.65;;
39750;SDS011;37579;51.074;17.004;2023-05-20T02:49:31;3.97;;;3.13;;
39750;SDS011;37579;51.074;17.004;2023-05-20T02:51:57;4.93;;;3.38;;
39750;SDS011;37579;51.074;17.004;2023-05-20T02:54:23;4.93;;;3.45;;
39750;SDS011;37579;51.074;17.004;2023-05-20T02:56:49;3.90;;;3.22;;
39750;SDS011;37579;51.074;17.004;2023-05-20T02:59:14;6.30;;;3.45;;
39750;SDS011;37579;51.074;17.004;2023-05-20T03:01:40;3.60;;;2.80;;
39750;SDS011;37579;51.074;17.004;2023-05-20T03:04:07;3.42;;;3.13;;
39750;SDS011;37579;51.074;17.004;2023-05-20T03:06:33;4.10;;;3.40;;
39750;SDS011;37579;51.074;17.004;2023-05-20T03:08:59;3.97;;;3.05;;
39750;SDS011;37579;51.074;17.004;2023-05-20T03:11:25;5.45;;;3.72;;
39750;SDS011;37579;51.074;17.004;2023-05-20T03:13:51;4.70;;;3.15;;
39750;SDS011;37579;51.074;17.004;2023-05-20T03:16:17;4.82;;;3.60;;
39750;SDS011;37579;51.074;17.004;2023-05-20T03:18:44;3.65;;;3.17;;
39750;SDS011;37579;51.074;17.004;2023-05-20T03:21:10;3.95;;;3.38;;
39750;SDS011;37579;51.074;17.004;2023-05-20T03:23:36;4.80;;;3.20;;
39750;SDS011;37579;51.074;17.004;2023-05-20T03:26:03;3.90;;;2.95;;
39750;SDS011;37579;51.074;17.004;2023-05-20T03:28:32;3.33;;;2.80;;
39750;SDS011;37579;51.074;17.004;2023-05-20T03:30:57;3.97;;;3.25;;
39750;SDS011;37579;51.074;17.004;2023-05-20T03:33:23;4.45;;;3.47;;
39750;SDS011;37579;51.074;17.004;2023-05-20T03:35:51;4.47;;;3.50;;
39750;SDS011;37579;51.074;17.004;2023-05-20T03:38:17;4.15;;;3.10;;
39750;SDS011;37579;51.074;17.004;2023-05-20T03:40:43;4.07;;;3.30;;
39750;SDS011;37579;51.074;17.004;2023-05-20T03:43:08;3.45;;;3.15;;
39750;SDS011;37579;51.074;17.004;2023-05-20T03:45:35;4.95;;;3.35;;
39750;SDS011;37579;51.074;17.004;2023-05-20T03:48:04;3.28;;;2.90;;
39750;SDS011;37579;51.074;17.004;2023-05-20T03:50:32;3.95;;;3.20;;
39750;SDS011;37579;51.074;17.004;2023-05-20T03:52:59;4.00;;;3.20;;
39750;SDS011;37579;51.074;17.004;2023-05-20T03:55:25;3.40;;;2.97;;
39750;SDS011;37579;51.074;17.004;2023-05-20T03:57:52;4.10;;;3.15;;
39750;SDS011;37579;51.074;17.004;2023-05-20T04:00:19;3.72;;;3.33;;
39750;SDS011;37579;51.074;17.004;2023-05-20T04:02:46;4.05;;;2.72;;
39750;SDS011;37579;51.074;17.004;2023-05-20T04:05:15;4.00;;;3.40;;
39750;SDS011;37579;51.074;17.004;2023-05-20T04:07:41;3.50;;;2.83;;
39750;SDS011;37579;51.074;17.004;2023-05-20T04:10:07;4.20;;;3.10;;
39750;SDS011;37579;51.074;17.004;2023-05-20T04:12:34;3.95;;;3.25;;
39750;SDS011;37579;51.074;17.004;2023-05-20T04:15:01;3.97;;;3.10;;
39750;SDS011;37579;51.074;17.004;2023-05-20T04:17:31;4.28;;;3.22;;
39750;SDS011;37579;51.074;17.004;2023-05-20T04:19:58;3.13;;;2.83;;
39750;SDS011;37579;51.074;17.004;2023-05-20T04:22:24;3.88;;;3.35;;
39750;SDS011;37579;51.074;17.004;2023-05-20T04:24:51;3.67;;;2.83;;
39750;SDS011;37579;51.074;17.004;2023-05-20T04:27:17;3.00;;;2.70;;
39750;SDS011;37579;51.074;17.004;2023-05-20T04:29:42;3.42;;;2.88;;
39750;SDS011;37579;51.074;17.004;2023-05-20T04:32:12;3.80;;;3.35;;
39750;SDS011;37579;51.074;17.004;2023-05-20T04:34:39;5.20;;;3.08;;
39750;SDS011;37579;51.074;17.004;2023-05-20T04:37:05;3.85;;;2.97;;
39750;SDS011;37579;51.074;17.004;2023-05-20T04:39:34;3.30;;;3.00;;
39750;SDS011;37579;51.074;17.004;2023-05-20T04:42:02;5.15;;;3.38;;
39750;SDS011;37579;51.074;17.004;2023-05-20T04:44:29;3.72;;;3.13;;
39750;SDS011;37579;51.074;17.004;2023-05-20T04:46:55;3.50;;;3.17;;
39750;SDS011;37579;51.074;17.004;2023-05-20T04:49:24;4.68;;;3.30;;
39750;SDS011;37579;51.074;17.004;2023-05-20T04:51:51;3.90;;;3.20;;
39750;SDS011;37579;51.074;17.004;2023-05-20T04:54:17;3.50;;;2.97;;
39750;SDS011;37579;51.074;17.004;2023-05-20T04:56:44;3.30;;;2.80;;
39750;SDS011;37579;51.074;17.004;2023-05-20T04:59:11;3.47;;;2.90;;
39750;SDS011;37579;51.074;17.004;2023-05-20T05:01:38;4.13;;;2.85;;
39750;SDS011;37579;51.074;17.004;2023-05-20T05:04:05;4.32;;;2.90;;
39750;SDS011;37579;51.074;17.004;2023-05-20T05:06:30;3.55;;;2.95;;
39750;SDS011;37579;51.074;17.004;2023-05-20T05:08:57;3.78;;;3.15;;
39750;SDS011;37579;51.074;17.004;2023-05-20T05:11:24;3.30;;;2.70;;
39750;SDS011;37579;51.074;17.004;2023-05-20T05:13:50;3.28;;;2.80;;
39750;SDS011;37579;51.074;17.004;2023-05-20T05:16:17;2.95;;;2.33;;
39750;SDS011;37579;51.074;17.004;2023-05-20T05:18:43;3.75;;;3.00;;
39750;SDS011;37579;51.074;17.004;2023-05-20T05:21:09;4.93;;;3.00;;
39750;SDS011;37579;51.074;17.004;2023-05-20T05:23:35;3.58;;;3.03;;
39750;SDS011;37579;51.074;17.004;2023-05-20T05:26:01;4.40;;;2.95;;
39750;SDS011;37579;51.074;17.004;2023-05-20T05:28:27;3.15;;;2.83;;
39750;SDS011;37579;51.074;17.004;2023-05-20T05:30:53;4.90;;;3.00;;
39750;SDS011;37579;51.074;17.004;2023-05-20T05:33:20;3.05;;;2.67;;
39750;SDS011;37579;51.074;17.004;2023-05-20T05:35:46;3.70;;;2.90;;
39750;SDS011;37579;51.074;17.004;2023-05-20T05:38:12;3.08;;;2.78;;
39750;SDS011;37579;51.074;17.004;2023-05-20T05:40:38;4.43;;;2.75;;
39750;SDS011;37579;51.074;17.004;2023-05-20T05:43:12;3.55;;;3.17;;
39750;SDS011;37579;51.074;17.004;2023-05-20T05:45:39;3.35;;;3.05;;
39750;SDS011;37579;51.074;17.004;2023-05-20T05:48:12;3.45;;;3.13;;
39750;SDS011;37579;51.074;17.004;2023-05-20T05:50:45;3.55;;;3.13;;
39750;SDS011;37579;51.074;17.004;2023-05-20T05:53:19;3.03;;;2.67;;
39750;SDS011;37579;51.074;17.004;2023-05-20T05:56:08;3.42;;;2.80;;
39750;SDS011;37579;51.074;17.004;2023-05-20T05:58:40;2.60;;;2.40;;
39750;SDS011;37579;51.074;17.004;2023-05-20T06:01:15;3.70;;;2.85;;
39750;SDS011;37579;51.074;17.004;2023-05-20T06:03:40;3.80;;;3.10;;
39750;SDS011;37579;51.074;17.004;2023-05-20T06:06:06;3.72;;;3.17;;
39750;SDS011;37579;51.074;17.004;2023-05-20T06:08:33;3.50;;;2.83;;
39750;SDS011;37579;51.074;17.004;2023-05-20T06:10:59;4.03;;;3.20;;
39750;SDS011;37579;51.074;17.004;2023-05-20T06:13:25;3.65;;;3.30;;
39750;SDS011;37579;51.074;17.004;2023-05-20T06:15:50;3.90;;;2.95;;
39750;SDS011;37579;51.074;17.004;2023-05-20T06:18:17;3.67;;;3.00;;
39750;SDS011;37579;51.074;17.004;2023-05-20T06:20:43;3.85;;;2.90;;
39750;SDS011;37579;51.074;17.004;2023-05-20T06:23:09;4.38;;;2.92;;
39750;SDS011;37579;51.074;17.004;2023-05-20T06:25:56;3.60;;;3.17;;
39750;SDS011;37579;51.074;17.004;2023-05-20T06:28:23;4.00;;;3.05;;
39750;SDS011;37579;51.074;17.004;2023-05-20T06:30:49;3.45;;;3.08;;
39750;SDS011;37579;51.074;17.004;2023-05-20T06:33:17;3.65;;;3.17;;
39750;SDS011;37579;51.074;17.004;2023-05-20T06:35:44;3.50;;;2.90;;
39750;SDS011;37579;51.074;17.004;2023-05-20T06:38:10;3.67;;;3.00;;
39750;SDS011;37579;51.074;17.004;2023-05-20T06:40:36;3.55;;;2.88;;
39750;SDS011;37579;51.074;17.004;2023-05-20T06:43:02;3.22;;;2.83;;
39750;SDS011;37579;51.074;17.004;2023-05-20T06:45:47;3.65;;;2.58;;
39750;SDS011;37579;51.074;17.004;2023-05-20T06:48:26;3.42;;;3.00;;
39750;SDS011;37579;51.074;17.004;2023-05-20T06:50:51;3.80;;;3.13;;
39750;SDS011;37579;51.074;17.004;2023-05-20T06:53:17;3.50;;;2.90;;
39750;SDS011;37579;51.074;17.004;2023-05-20T06:55:43;4.63;;;2.95;;
39750;SDS011;37579;51.074;17.004;2023-05-20T06:58:09;4.10;;;3.05;;
39750;SDS011;37579;51.074;17.004;2023-05-20T07:00:36;3.22;;;2.88;;
39750;SDS011;37579;51.074;17.004;2023-05-20T07:03:03;5.03;;;3.88;;
39750;SDS011;37579;51.074;17.004;2023-05-20T07:05:29;5.07;;;3.03;;
39750;SDS011;37579;51.074;17.004;2023-05-20T07:07:56;4.57;;;3.00;;
39750;SDS011;37579;51.074;17.004;2023-05-20T07:10:21;4.32;;;2.95;;
39750;SDS011;37579;51.074;17.004;2023-05-20T07:12:47;5.07;;;3.00;;
39750;SDS011;37579;51.074;17.004;2023-05-20T07:15:13;4.55;;;3.28;;
39750;SDS011;37579;51.074;17.004;2023-05-20T07:17:40;5.70;;;3.45;;
39750;SDS011;37579;51.074;17.004;2023-05-20T07:20:06;5.82;;;2.75;;
39750;SDS011;37579;51.074;17.004;2023-05-20T07:22:34;5.82;;;2.72;;
39750;SDS011;37579;51.074;17.004;2023-05-20T07:25:09;5.28;;;3.83;;
39750;SDS011;37579;51.074;17.004;2023-05-20T07:27:36;7.43;;;4.53;;
39750;SDS011;37579;51.074;17.004;2023-05-20T07:30:02;7.75;;;4.45;;
39750;SDS011;37579;51.074;17.004;2023-05-20T07:32:30;10.85;;;4.50;;
39750;SDS011;37579;51.074;17.004;2023-05-20T07:34:56;6.32;;;4.00;;
39750;SDS011;37579;51.074;17.004;2023-05-20T07:37:21;9.32;;;4.70;;
39750;SDS011;37579;51.074;17.004;2023-05-20T07:39:47;7.40;;;4.68;;
39750;SDS011;37579;51.074;17.004;2023-05-20T07:42:13;7.20;;;4.22;;
39750;SDS011;37579;51.074;17.004;2023-05-20T07:44:42;9.45;;;4.55;;
39750;SDS011;37579;51.074;17.004;2023-05-20T07:47:09;8.93;;;4.90;;
39750;SDS011;37579;51.074;17.004;2023-05-20T07:49:35;8.63;;;5.10;;
39750;SDS011;37579;51.074;17.004;2023-05-20T07:52:02;7.88;;;4.88;;
39750;SDS011;37579;51.074;17.004;2023-05-20T07:54:28;7.57;;;5.15;;
39750;SDS011;37579;51.074;17.004;2023-05-20T07:56:55;9.65;;;4.95;;
39750;SDS011;37579;51.074;17.004;2023-05-20T07:59:20;8.18;;;4.72;;
39750;SDS011;37579;51.074;17.004;2023-05-20T08:01:49;7.30;;;5.00;;
39750;SDS011;37579;51.074;17.004;2023-05-20T08:04:17;11.43;;;5.53;;
39750;SDS011;37579;51.074;17.004;2023-05-20T08:06:44;7.25;;;4.93;;
39750;SDS011;37579;51.074;17.004;2023-05-20T08:09:17;8.05;;;5.25;;
39750;SDS011;37579;51.074;17.004;2023-05-20T08:11:48;8.30;;;5.28;;
39750;SDS011;37579;51.074;17.004;2023-05-20T08:14:14;8.10;;;5.38;;
39750;SDS011;37579;51.074;17.004;2023-05-20T08:16:42;10.40;;;5.25;;
39750;SDS011;37579;51.074;17.004;2023-05-20T08:19:08;7.05;;;5.28;;
39750;SDS011;37579;51.074;17.004;2023-05-20T08:21:34;9.10;;;5.70;;
39750;SDS011;37579;51.074;17.004;2023-05-20T08:24:00;9.10;;;5.72;;
39750;SDS011;37579;51.074;17.004;2023-05-20T08:26:26;9.23;;;5.95;;
39750;SDS011;37579;51.074;17.004;2023-05-20T08:28:53;8.52;;;5.18;;
39750;SDS011;37579;51.074;17.004;2023-05-20T08:31:19;7.68;;;4.63;;
39750;SDS011;37579;51.074;17.004;2023-05-20T08:33:45;9.63;;;5.55;;
39750;SDS011;37579;51.074;17.004;2023-05-20T08:36:11;9.48;;;5.25;;
39750;SDS011;37579;51.074;17.004;2023-05-20T08:38:37;8.25;;;5.70;;
39750;SDS011;37579;51.074;17.004;2023-05-20T08:41:03;7.53;;;5.60;;
39750;SDS011;37579;51.074;17.004;2023-05-20T08:43:29;7.40;;;5.68;;
39750;SDS011;37579;51.074;17.004;2023-05-20T08:45:57;8.15;;;5.03;;
39750;SDS011;37579;51.074;17.004;2023-05-20T08:48:25;8.55;;;5.32;;
39750;SDS011;37579;51.074;17.004;2023-05-20T08:50:52;8.05;;;5.45;;
39750;SDS011;37579;51.074;17.004;2023-05-20T08:53:21;8.35;;;5.47;;
39750;SDS011;37579;51.074;17.004;2023-05-20T08:55:49;8.85;;;5.57;;
39750;SDS011;37579;51.074;17.004;2023-05-20T08:58:17;7.65;;;5.35;;
39750;SDS011;37579;51.074;17.004;2023-05-20T09:00:44;7.55;;;5.75;;
39750;SDS011;37579;51.074;17.004;2023-05-20T09:03:10;8.73;;;5.95;;
39750;SDS011;37579;51.074;17.004;2023-05-20T09:05:36;6.40;;;4.90;;
39750;SDS011;37579;51.074;17.004;2023-05-20T09:08:08;7.43;;;5.70;;
39750;SDS011;37579;51.074;17.004;2023-05-20T09:10:36;8.88;;;5.68;;
39750;SDS011;37579;51.074;17.004;2023-05-20T09:13:04;8.55;;;6.05;;
39750;SDS011;37579;51.074;17.004;2023-05-20T09:15:31;9.60;;;5.57;;
39750;SDS011;37579;51.074;17.004;2023-05-20T09:18:04;7.82;;;5.97;;
39750;SDS011;37579;51.074;17.004;2023-05-20T09:20:34;7.60;;;5.07;;
39750;SDS011;37579;51.074;17.004;2023-05-20T09:23:02;9.00;;;5.80;;
39750;SDS011;37579;51.074;17.004;2023-05-20T09:25:32;8.60;;;5.70;;
39750;SDS011;37579;51.074;17.004;2023-05-20T09:27:59;7.03;;;5.25;;
39750;SDS011;37579;51.074;17.004;2023-05-20T09:30:25;6.78;;;4.95;;
39750;SDS011;37579;51.074;17.004;2023-05-20T09:32:52;8.70;;;5.53;;
39750;SDS011;37579;51.074;17.004;2023-05-20T09:35:19;8.35;;;5.57;;
39750;SDS011;37579;51.074;17.004;2023-05-20T09:37:46;7.68;;;5.25;;
39750;SDS011;37579;51.074;17.004;2023-05-20T09:40:12;7.75;;;4.97;;
39750;SDS011;37579;51.074;17.004;2023-05-20T09:42:52;8.02;;;4.93;;
39750;SDS011;37579;51.074;17.004;2023-05-20T09:45:24;6.45;;;5.28;;
39750;SDS011;37579;51.074;17.004;2023-05-20T09:47:50;7.30;;;5.05;;
39750;SDS011;37579;51.074;17.004;2023-05-20T09:50:19;7.25;;;5.40;;
39750;SDS011;37579;51.074;17.004;2023-05-20T09:52:47;6.57;;;5.07;;
39750;SDS011;37579;51.074;17.004;2023-05-20T09:55:15;8.77;;;5.20;;
39750;SDS011;37579;51.074;17.004;2023-05-20T09:57:43;7.22;;;5.35;;
39750;SDS011;37579;51.074;17.004;2023-05-20T10:00:10;8.18;;;5.28;;
39750;SDS011;37579;51.074;17.004;2023-05-20T10:02:48;7.55;;;5.13;;
39750;SDS011;37579;51.074;17.004;2023-05-20T10:05:26;5.95;;;4.75;;
39750;SDS011;37579;51.074;17.004;2023-05-20T10:19:32;8.35;;;5.15;;
39750;SDS011;37579;51.074;17.004;2023-05-20T10:24:28;6.03;;;4.63;;
39750;SDS011;37579;51.074;17.004;2023-05-20T10:27:00;6.13;;;4.97;;
39750;SDS011;37579;51.074;17.004;2023-05-20T10:29:27;6.45;;;5.05;;
39750;SDS011;37579;51.074;17.004;2023-05-20T10:31:53;6.20;;;4.85;;
39750;SDS011;37579;51.074;17.004;2023-05-20T10:34:20;5.85;;;4.70;;
39750;SDS011;37579;51.074;17.004;2023-05-20T10:39:24;8.27;;;4.95;;
39750;SDS011;37579;51.074;17.004;2023-05-20T10:42:06;5.45;;;4.50;;
39750;SDS011;37579;51.074;17.004;2023-05-20T10:44:42;5.95;;;4.55;;
39750;SDS011;37579;51.074;17.004;2023-05-20T10:47:09;9.27;;;5.18;;
39750;SDS011;37579;51.074;17.004;2023-05-20T10:49:38;7.50;;;5.07;;
39750;SDS011;37579;51.074;17.004;2023-05-20T10:52:08;6.45;;;5.15;;
39750;SDS011;37579;51.074;17.004;2023-05-20T10:57:27;8.13;;;5.30;;
39750;SDS011;37579;51.074;17.004;2023-05-20T10:59:54;6.18;;;4.80;;
39750;SDS011;37579;51.074;17.004;2023-05-20T11:02:20;6.07;;;4.80;;
39750;SDS011;37579;51.074;17.004;2023-05-20T11:04:57;5.38;;;4.22;;
39750;SDS011;37579;51.074;17.004;2023-05-20T11:07:27;5.63;;;4.87;;
39750;SDS011;37579;51.074;17.004;2023-05-20T11:09:54;7.30;;;4.78;;
39750;SDS011;37579;51.074;17.004;2023-05-20T11:12:23;6.20;;;4.22;;
39750;SDS011;37579;51.074;17.004;2023-05-20T11:14:50;6.90;;;4.82;;
39750;SDS011;37579;51.074;17.004;2023-05-20T11:17:16;7.97;;;4.80;;
39750;SDS011;37579;51.074;17.004;2023-05-20T11:19:46;6.35;;;5.13;;
39750;SDS011;37579;51.074;17.004;2023-05-20T11:22:12;7.97;;;4.85;;
39750;SDS011;37579;51.074;17.004;2023-05-20T11:24:38;6.97;;;4.93;;
39750;SDS011;37579;51.074;17.004;2023-05-20T11:27:04;5.25;;;4.65;;
39750;SDS011;37579;51.074;17.004;2023-05-20T11:29:30;5.88;;;5.07;;
39750;SDS011;37579;51.074;17.004;2023-05-20T11:31:58;6.93;;;4.68;;
39750;SDS011;37579;51.074;17.004;2023-05-20T11:34:25;5.15;;;4.57;;
39750;SDS011;37579;51.074;17.004;2023-05-20T11:36:57;5.25;;;4.40;;
39750;SDS011;37579;51.074;17.004;2023-05-20T11:39:23;4.63;;;4.10;;
39750;SDS011;37579;51.074;17.004;2023-05-20T11:41:51;5.78;;;4.18;;
39750;SDS011;37579;51.074;17.004;2023-05-20T11:44:18;6.82;;;4.32;;
39750;SDS011;37579;51.074;17.004;2023-05-20T11:46:45;4.93;;;4.40;;
39750;SDS011;37579;51.074;17.004;2023-05-20T11:49:12;6.25;;;4.60;;
39750;SDS011;37579;51.074;17.004;2023-05-20T11:51:39;5.50;;;4.60;;
39750;SDS011;37579;51.074;17.004;2023-05-20T11:54:05;6.85;;;4.40;;
39750;SDS011;37579;51.074;17.004;2023-05-20T11:56:32;5.82;;;4.63;;
39750;SDS011;37579;51.074;17.004;2023-05-20T11:59:00;7.82;;;4.40;;
39750;SDS011;37579;51.074;17.004;2023-05-20T12:01:28;4.50;;;3.88;;
39750;SDS011;37579;51.074;17.004;2023-05-20T12:03:55;5.15;;;4.38;;
39750;SDS011;37579;51.074;17.004;2023-05-20T12:06:21;5.25;;;4.43;;
39750;SDS011;37579;51.074;17.004;2023-05-20T12:08:47;6.43;;;4.53;;
39750;SDS011;37579;51.074;17.004;2023-05-20T12:11:12;5.40;;;3.90;;
39750;SDS011;37579;51.074;17.004;2023-05-20T12:13:38;5.18;;;4.57;;
39750;SDS011;37579;51.074;17.004;2023-05-20T12:16:05;4.65;;;4.18;;
39750;SDS011;37579;51.074;17.004;2023-05-20T12:18:31;5.32;;;4.50;;
39750;SDS011;37579;51.074;17.004;2023-05-20T12:21:00;5.10;;;4.47;;
39750;SDS011;37579;51.074;17.004;2023-05-20T12:23:25;5.68;;;4.25;;
39750;SDS011;37579;51.074;17.004;2023-05-20T12:25:53;4.85;;;4.20;;
39750;SDS011;37579;51.074;17.004;2023-05-20T12:28:19;5.03;;;4.15;;
39750;SDS011;37579;51.074;17.004;2023-05-20T12:30:45;5.53;;;4.45;;
39750;SDS011;37579;51.074;17.004;2023-05-20T12:33:11;5.13;;;4.47;;
39750;SDS011;37579;51.074;17.004;2023-05-20T12:35:38;5.15;;;4.10;;
39750;SDS011;37579;51.074;17.004;2023-05-20T12:38:05;4.80;;;4.03;;
39750;SDS011;37579;51.074;17.004;2023-05-20T12:40:31;4.63;;;3.95;;
39750;SDS011;37579;51.074;17.004;2023-05-20T12:42:59;4.85;;;4.15;;
39750;SDS011;37579;51.074;17.004;2023-05-20T12:45:26;4.70;;;3.50;;
39750;SDS011;37579;51.074;17.004;2023-05-20T12:47:52;5.90;;;4.20;;
39750;SDS011;37579;51.074;17.004;2023-05-20T12:50:18;4.72;;;4.03;;
39750;SDS011;37579;51.074;17.004;2023-05-20T12:52:44;5.50;;;4.47;;
39750;SDS011;37579;51.074;17.004;2023-05-20T12:55:11;4.47;;;4.07;;
39750;SDS011;37579;51.074;17.004;2023-05-20T12:57:40;4.63;;;3.85;;
39750;SDS011;37579;51.074;17.004;2023-05-20T13:00:07;5.28;;;4.07;;
39750;SDS011;37579;51.074;17.004;2023-05-20T13:02:35;5.32;;;4.22;;
39750;SDS011;37579;51.074;17.004;2023-05-20T13:05:01;4.93;;;3.90;;
39750;SDS011;37579;51.074;17.004;2023-05-20T13:07:27;5.18;;;4.28;;
39750;SDS011;37579;51.074;17.004;2023-05-20T13:09:53;4.95;;;4.45;;
39750;SDS011;37579;51.074;17.004;2023-05-20T13:12:18;5.43;;;4.03;;
39750;SDS011;37579;51.074;17.004;2023-05-20T13:14:45;4.65;;;4.10;;
39750;SDS011;37579;51.074;17.004;2023-05-20T13:17:11;6.50;;;3.97;;
39750;SDS011;37579;51.074;17.004;2023-05-20T13:19:36;5.50;;;4.25;;
39750;SDS011;37579;51.074;17.004;2023-05-20T13:22:03;4.65;;;3.92;;
39750;SDS011;37579;51.074;17.004;2023-05-20T13:24:30;6.10;;;4.38;;
39750;SDS011;37579;51.074;17.004;2023-05-20T13:26:58;4.53;;;3.75;;
39750;SDS011;37579;51.074;17.004;2023-05-20T13:29:25;5.65;;;4.53;;
39750;SDS011;37579;51.074;17.004;2023-05-20T13:31:51;5.93;;;4.65;;
39750;SDS011;37579;51.074;17.004;2023-05-20T13:34:17;6.38;;;4.70;;
39750;SDS011;37579;51.074;17.004;2023-05-20T13:36:43;5.03;;;4.53;;
39750;SDS011;37579;51.074;17.004;2023-05-20T13:39:10;5.93;;;4.35;;
39750;SDS011;37579;51.074;17.004;2023-05-20T13:41:36;5.72;;;4.38;;
39750;SDS011;37579;51.074;17.004;2023-05-20T13:44:02;5.95;;;5.00;;
39750;SDS011;37579;51.074;17.004;2023-05-20T13:46:28;8.35;;;5.03;;
39750;SDS011;37579;51.074;17.004;2023-05-20T13:48:54;10.15;;;8.43;;
39750;SDS011;37579;51.074;17.004;2023-05-20T13:51:20;13.65;;;10.68;;
39750;SDS011;37579;51.074;17.004;2023-05-20T13:53:46;14.90;;;11.82;;
39750;SDS011;37579;51.074;17.004;2023-05-20T13:56:12;17.27;;;12.20;;
39750;SDS011;37579;51.074;17.004;2023-05-20T13:58:38;14.90;;;11.75;;
39750;SDS011;37579;51.074;17.004;2023-05-20T14:01:04;12.07;;;10.52;;
39750;SDS011;37579;51.074;17.004;2023-05-20T14:03:31;11.30;;;10.10;;
39750;SDS011;37579;51.074;17.004;2023-05-20T14:06:01;11.85;;;10.00;;
39750;SDS011;37579;51.074;17.004;2023-05-20T14:08:27;11.80;;;9.55;;
39750;SDS011;37579;51.074;17.004;2023-05-20T14:10:53;14.18;;;10.23;;
39750;SDS011;37579;51.074;17.004;2023-05-20T14:13:23;13.00;;;10.20;;
39750;SDS011;37579;51.074;17.004;2023-05-20T14:15:49;12.77;;;10.25;;
39750;SDS011;37579;51.074;17.004;2023-05-20T14:18:16;12.27;;;9.68;;
39750;SDS011;37579;51.074;17.004;2023-05-20T14:20:43;11.55;;;10.20;;
39750;SDS011;37579;51.074;17.004;2023-05-20T14:23:09;12.18;;;9.30;;
39750;SDS011;37579;51.074;17.004;2023-05-20T14:25:36;11.65;;;9.55;;
39750;SDS011;37579;51.074;17.004;2023-05-20T14:28:02;12.90;;;10.07;;
39750;SDS011;37579;51.074;17.004;2023-05-20T14:30:28;12.27;;;9.23;;
39750;SDS011;37579;51.074;17.004;2023-05-20T14:32:54;10.73;;;9.63;;
39750;SDS011;37579;51.074;17.004;2023-05-20T14:35:20;11.20;;;9.05;;
39750;SDS011;37579;51.074;17.004;2023-05-20T14:37:46;10.95;;;9.57;;
39750;SDS011;37579;51.074;17.004;2023-05-20T14:40:12;11.32;;;9.32;;
39750;SDS011;37579;51.074;17.004;2023-05-20T14:42:38;13.52;;;9.45;;
39750;SDS011;37579;51.074;17.004;2023-05-20T14:45:04;11.35;;;9.43;;
39750;SDS011;37579;51.074;17.004;2023-05-20T14:47:31;12.82;;;9.30;;
39750;SDS011;37579;51.074;17.004;2023-05-20T14:49:57;11.30;;;9.57;;
39750;SDS011;37579;51.074;17.004;2023-05-20T14:52:24;14.23;;;9.65;;